Terminal Aerodrome Forecast
Issued by NWS

Home | Current Version | Previous Version | Graphics & Text | Print | Product List | Glossary On
Versions: 1 2 3 4 5 6 7 8 9 10 11 12 13 14 15
000
FTUS45 KGGW 251720
TAFSDY
TAF
KSDY 251720Z 2518/2618 35011KT P6SM VCSH FEW020 OVC035
      TEMPO 2518/2521 5SM -SHRA OVC025
     FM260000 34010KT P6SM VCSH BKN040
     FM261200 28006KT P6SM VCSH BKN040
      AMD LTD TO CLD VIS AND WIND=

USA.gov is the U.S. government's official web portal to all federal, state and local government web resources and services.